createdAt,value
2017-05-05T00:01:01.290Z,0
2017-05-05T00:02:10.177Z,0
2017-05-05T00:03:19.487Z,0
2017-05-05T00:04:28.373Z,0
2017-05-05T00:05:37.911Z,0
2017-05-05T00:06:47.126Z,0
2017-05-05T00:07:56.667Z,0
2017-05-05T00:09:06.255Z,0
2017-05-05T00:10:15.139Z,0
2017-05-05T00:11:24.676Z,0
2017-05-05T00:12:33.887Z,0
2017-05-05T00:13:42.771Z,0
2017-05-05T00:14:52.236Z,0
2017-05-05T00:16:01.125Z,0
2017-05-05T00:17:10.010Z,0
2017-05-05T00:18:19.219Z,0
2017-05-05T00:19:28.434Z,0
2017-05-05T00:20:37.471Z,0
2017-05-05T00:21:46.358Z,0
2017-05-05T00:22:55.238Z,0
2017-05-05T00:24:04.125Z,0
2017-05-05T00:25:13.339Z,0
2017-05-05T00:26:23.026Z,0
2017-05-05T00:27:32.236Z,0
2017-05-05T00:28:41.478Z,0
2017-05-05T00:29:51.668Z,0
2017-05-05T00:31:01.206Z,0
2017-05-05T00:32:10.443Z,0
2017-05-05T00:33:19.659Z,0
2017-05-05T00:34:29.524Z,0
2017-05-05T00:35:38.735Z,0
2017-05-05T00:36:47.944Z,0
2017-05-05T00:37:57.305Z,0
2017-05-05T00:39:06.518Z,0
2017-05-05T00:40:15.405Z,0
2017-05-05T00:41:24.291Z,0
2017-05-05T00:42:33.504Z,0
2017-05-05T00:43:43.042Z,0
2017-05-05T00:44:52.905Z,0
2017-05-05T00:46:01.794Z,0
2017-05-05T00:47:11.004Z,0
2017-05-05T00:48:20.866Z,0
2017-05-05T00:49:30.702Z,0
2017-05-05T00:50:39.595Z,0
2017-05-05T00:51:49.128Z,0
2017-05-05T00:52:58.662Z,0
2017-05-05T00:54:08.199Z,0
2017-05-05T00:55:17.087Z,0
2017-05-05T00:56:25.970Z,0
2017-05-05T00:57:34.856Z,0
2017-05-05T00:58:43.756Z,0
2017-05-05T00:59:53.290Z,0
2017-05-05T01:01:02.714Z,0
2017-05-05T01:02:11.922Z,0
2017-05-05T01:03:21.130Z,0
2017-05-05T01:04:30.666Z,0
2017-05-05T01:05:39.875Z,0
2017-05-05T01:06:48.764Z,0
2017-05-05T01:07:58.307Z,0
2017-05-05T01:09:07.198Z,0
2017-05-05T01:10:16.407Z,0
2017-05-05T01:11:25.626Z,0
2017-05-05T01:12:35.311Z,0
2017-05-05T01:13:44.204Z,0
2017-05-05T01:14:53.417Z,0
2017-05-05T01:16:02.953Z,0
2017-05-05T01:17:12.490Z,0
2017-05-05T01:18:21.424Z,0
2017-05-05T01:19:30.634Z,0
2017-05-05T01:20:39.522Z,0
2017-05-05T01:21:49.059Z,0
2017-05-05T01:22:58.269Z,0
2017-05-05T01:24:07.629Z,0
2017-05-05T01:25:16.516Z,0
2017-05-05T01:26:25.405Z,0
2017-05-05T01:27:34.289Z,0
2017-05-05T01:28:43.175Z,0
2017-05-05T01:29:52.310Z,0
2017-05-05T01:31:01.534Z,0
2017-05-05T01:32:10.417Z,0
2017-05-05T01:33:20.280Z,0
2017-05-05T01:34:29.824Z,0
2017-05-05T01:35:39.013Z,0
2017-05-05T01:36:48.223Z,0
2017-05-05T01:37:57.427Z,0
2017-05-05T01:39:06.641Z,0
2017-05-05T01:40:15.850Z,0
2017-05-05T01:41:25.436Z,0
2017-05-05T01:42:34.646Z,0
2017-05-05T01:43:44.184Z,0
2017-05-05T01:44:53.399Z,0
2017-05-05T01:46:02.932Z,0
2017-05-05T01:47:11.972Z,0
2017-05-05T01:48:21.537Z,0
2017-05-05T01:49:30.752Z,0
2017-05-05T01:50:39.960Z,0
2017-05-05T01:51:48.843Z,0
2017-05-05T01:52:58.158Z,0
2017-05-05T01:54:07.051Z,0
2017-05-05T01:55:15.940Z,0
2017-05-05T01:56:25.152Z,0
2017-05-05T01:57:34.046Z,0
2017-05-05T01:58:44.204Z,0
2017-05-05T01:59:54.076Z,0
2017-05-05T02:01:03.288Z,0
2017-05-05T02:02:12.173Z,0
2017-05-05T02:03:21.712Z,0
2017-05-05T02:04:31.074Z,0
2017-05-05T02:05:40.286Z,0
2017-05-05T02:06:49.527Z,0
2017-05-05T02:07:58.743Z,0
2017-05-05T02:09:07.963Z,0
2017-05-05T02:10:17.876Z,0
2017-05-05T02:11:27.409Z,0
2017-05-05T02:12:36.299Z,0
2017-05-05T02:13:46.166Z,0
2017-05-05T02:14:55.697Z,0
2017-05-05T02:16:04.732Z,0
2017-05-05T02:17:13.627Z,0
2017-05-05T02:18:22.839Z,0
2017-05-05T02:19:32.044Z,0
2017-05-05T02:20:40.930Z,0
2017-05-05T02:21:49.915Z,0
2017-05-05T02:22:59.773Z,0
2017-05-05T02:24:08.983Z,0
2017-05-05T02:25:18.192Z,0
2017-05-05T02:26:27.077Z,0
2017-05-05T02:27:36.550Z,0
2017-05-05T02:28:45.763Z,0
2017-05-05T02:29:54.649Z,0
2017-05-05T02:31:03.860Z,0
2017-05-05T02:32:12.745Z,0
2017-05-05T02:33:22.108Z,0
2017-05-05T02:34:31.000Z,0
2017-05-05T02:35:40.217Z,0
2017-05-05T02:36:49.107Z,0
2017-05-05T02:37:57.993Z,0
2017-05-05T02:39:07.351Z,0
2017-05-05T02:40:16.237Z,0
2017-05-05T02:41:25.121Z,0
2017-05-05T02:42:34.011Z,0
2017-05-05T02:43:43.560Z,0
2017-05-05T02:44:52.754Z,0
2017-05-05T02:46:01.966Z,0
2017-05-05T02:47:10.856Z,0
2017-05-05T02:48:20.065Z,0
2017-05-05T02:49:29.276Z,0
2017-05-05T02:50:38.162Z,0
2017-05-05T02:51:47.699Z,0
2017-05-05T02:52:56.919Z,0
2017-05-05T02:54:06.467Z,0
2017-05-05T02:55:15.355Z,0
2017-05-05T02:56:24.238Z,0
2017-05-05T02:57:33.774Z,0
2017-05-05T02:58:42.998Z,0
2017-05-05T02:59:52.540Z,0
2017-05-05T03:01:01.751Z,0
2017-05-05T03:02:10.785Z,0
2017-05-05T03:03:20.326Z,0
2017-05-05T03:04:29.864Z,0
2017-05-05T03:05:38.753Z,0
2017-05-05T03:06:47.639Z,0
2017-05-05T03:07:56.629Z,0
2017-05-05T03:09:05.514Z,0
2017-05-05T03:10:14.723Z,0
2017-05-05T03:11:23.938Z,0
2017-05-05T03:12:33.150Z,0
2017-05-05T03:13:42.086Z,0
2017-05-05T03:14:51.625Z,0
2017-05-05T03:16:00.838Z,0
2017-05-05T03:17:10.049Z,0
2017-05-05T03:18:19.267Z,0
2017-05-05T03:19:29.459Z,0
2017-05-05T03:20:38.671Z,0
2017-05-05T03:21:47.560Z,0
2017-05-05T03:22:56.776Z,0
2017-05-05T03:24:05.992Z,0
2017-05-05T03:25:14.884Z,0
2017-05-05T03:26:23.767Z,0
2017-05-05T03:27:32.978Z,0
2017-05-05T03:28:42.192Z,0
2017-05-05T03:29:51.737Z,0
2017-05-05T03:31:00.873Z,0
2017-05-05T03:32:10.104Z,0
2017-05-05T03:33:19.315Z,0
2017-05-05T03:34:28.530Z,0
2017-05-05T03:35:37.413Z,0
2017-05-05T03:36:47.038Z,0
2017-05-05T03:37:56.574Z,0
2017-05-05T03:39:05.785Z,0
2017-05-05T03:40:14.666Z,0
2017-05-05T03:41:23.879Z,0
2017-05-05T03:42:32.915Z,0
2017-05-05T03:43:41.806Z,0
2017-05-05T03:44:51.018Z,0
2017-05-05T03:45:59.904Z,0
2017-05-05T03:47:08.787Z,0
2017-05-05T03:48:17.974Z,0
2017-05-05T03:49:27.513Z,0
2017-05-05T03:50:36.396Z,0
2017-05-05T03:51:45.307Z,0
2017-05-05T03:52:55.166Z,0
2017-05-05T03:54:05.004Z,0
2017-05-05T03:55:13.889Z,0
2017-05-05T03:56:23.107Z,0
2017-05-05T03:57:32.317Z,0
2017-05-05T03:58:41.532Z,0
2017-05-05T03:59:51.217Z,0
2017-05-05T04:01:00.103Z,5
2017-05-05T04:02:09.318Z,5
2017-05-05T04:03:18.852Z,5
2017-05-05T04:04:27.741Z,5
2017-05-05T04:05:37.103Z,5
2017-05-05T04:06:46.321Z,5
2017-05-05T04:07:55.215Z,5
2017-05-05T04:09:04.425Z,5
2017-05-05T04:10:13.313Z,5
2017-05-05T04:11:22.952Z,5
2017-05-05T04:12:32.169Z,5
2017-05-05T04:13:41.385Z,10
2017-05-05T04:14:50.597Z,10
2017-05-05T04:16:00.135Z,10
2017-05-05T04:17:09.549Z,10
2017-05-05T04:18:18.441Z,10
2017-05-05T04:19:27.975Z,10
2017-05-05T04:20:37.513Z,10
2017-05-05T04:21:46.722Z,10
2017-05-05T04:22:55.932Z,15
2017-05-05T04:24:05.795Z,15
2017-05-05T04:25:14.682Z,15
2017-05-05T04:26:23.570Z,15
2017-05-05T04:27:32.791Z,15
2017-05-05T04:28:42.480Z,15
2017-05-05T04:29:51.689Z,15
2017-05-05T04:31:00.898Z,15
2017-05-05T04:32:09.781Z,15
2017-05-05T04:33:18.661Z,15
2017-05-05T04:34:28.626Z,15
2017-05-05T04:35:37.507Z,15
2017-05-05T04:36:46.719Z,15
2017-05-05T04:37:56.584Z,20
2017-05-05T04:39:06.122Z,20
2017-05-05T04:40:15.487Z,20
2017-05-05T04:41:24.372Z,20
2017-05-05T04:42:33.589Z,20
2017-05-05T04:43:42.803Z,25
2017-05-05T04:44:52.012Z,20
2017-05-05T04:46:01.371Z,20
2017-05-05T04:47:10.586Z,20
2017-05-05T04:48:19.801Z,20
2017-05-05T04:49:29.019Z,25
2017-05-05T04:50:38.561Z,20
2017-05-05T04:51:47.822Z,20
2017-05-05T04:52:56.712Z,20
2017-05-05T04:54:05.922Z,20
2017-05-05T04:55:15.459Z,20
2017-05-05T04:56:24.992Z,25
2017-05-05T04:57:34.306Z,25
2017-05-05T04:58:43.885Z,25
2017-05-05T04:59:52.779Z,25
2017-05-05T05:01:01.991Z,25
2017-05-05T05:02:11.530Z,25
2017-05-05T05:03:21.297Z,25
2017-05-05T05:04:30.836Z,30
2017-05-05T05:05:39.723Z,30
2017-05-05T05:06:49.260Z,30
2017-05-05T05:07:58.146Z,30
2017-05-05T05:09:07.885Z,25
2017-05-05T05:10:16.781Z,25
2017-05-05T05:11:25.669Z,25
2017-05-05T05:12:34.554Z,25
2017-05-05T05:13:43.774Z,25
2017-05-05T05:14:53.191Z,25
2017-05-05T05:16:02.085Z,25
2017-05-05T05:17:10.977Z,30
2017-05-05T05:18:19.866Z,25
2017-05-05T05:19:29.094Z,30
2017-05-05T05:20:38.941Z,35
2017-05-05T05:21:48.155Z,35
2017-05-05T05:22:57.694Z,35
2017-05-05T05:24:06.596Z,35
2017-05-05T05:25:16.139Z,30
2017-05-05T05:26:25.349Z,35
2017-05-05T05:27:35.215Z,35
2017-05-05T05:28:44.433Z,40
2017-05-05T05:29:53.974Z,45
2017-05-05T05:31:02.862Z,40
2017-05-05T05:32:11.758Z,40
2017-05-05T05:33:21.305Z,45
2017-05-05T05:34:30.203Z,45
2017-05-05T05:35:39.092Z,40
2017-05-05T05:36:47.987Z,40
2017-05-05T05:37:57.856Z,50
2017-05-05T05:39:06.745Z,45
2017-05-05T05:40:15.963Z,45
2017-05-05T05:41:24.852Z,50
2017-05-05T05:42:33.743Z,45
2017-05-05T05:43:42.629Z,50
2017-05-05T05:44:51.852Z,50
2017-05-05T05:46:00.768Z,50
2017-05-05T05:47:09.659Z,55
2017-05-05T05:48:18.875Z,50
2017-05-05T05:49:28.448Z,55
2017-05-05T05:50:37.660Z,55
2017-05-05T05:51:47.253Z,55
2017-05-05T05:52:56.140Z,55
2017-05-05T05:54:05.039Z,55
2017-05-05T05:55:14.256Z,45
2017-05-05T05:56:23.468Z,50
2017-05-05T05:57:32.403Z,50
2017-05-05T05:58:41.953Z,50
2017-05-05T05:59:50.844Z,55
2017-05-05T06:01:00.056Z,60
2017-05-05T06:02:08.944Z,60
2017-05-05T06:03:18.580Z,65
2017-05-05T06:04:27.466Z,75
2017-05-05T06:05:36.694Z,70
2017-05-05T06:06:45.580Z,65
2017-05-05T06:07:54.795Z,65
2017-05-05T06:09:04.010Z,75
2017-05-05T06:10:13.270Z,75
2017-05-05T06:11:22.483Z,65
2017-05-05T06:12:31.723Z,70
2017-05-05T06:13:41.306Z,70
2017-05-05T06:14:50.830Z,70
2017-05-05T06:16:00.063Z,75
2017-05-05T06:17:09.274Z,70
2017-05-05T06:18:18.511Z,75
2017-05-05T06:19:27.725Z,70
2017-05-05T06:20:36.716Z,75
2017-05-05T06:21:45.605Z,65
2017-05-05T06:22:54.491Z,70
2017-05-05T06:24:03.383Z,70
2017-05-05T06:25:12.276Z,65
2017-05-05T06:26:21.976Z,60
2017-05-05T06:27:30.895Z,65
2017-05-05T06:28:40.111Z,70
2017-05-05T06:29:49.654Z,70
2017-05-05T06:30:58.546Z,80
2017-05-05T06:32:07.560Z,80
2017-05-05T06:33:16.455Z,85
2017-05-05T06:34:26.316Z,95
2017-05-05T06:35:35.855Z,95
2017-05-05T06:36:44.743Z,90
2017-05-05T06:37:53.781Z,90
2017-05-05T06:39:03.326Z,120
2017-05-05T06:40:12.266Z,125
2017-05-05T06:41:21.484Z,120
2017-05-05T06:42:30.373Z,110
2017-05-05T06:43:39.740Z,115
2017-05-05T06:44:48.956Z,125
2017-05-05T06:45:58.172Z,110
2017-05-05T06:47:07.071Z,125
2017-05-05T06:48:16.287Z,135
2017-05-05T06:49:25.227Z,135
2017-05-05T06:50:34.441Z,155
2017-05-05T06:51:43.331Z,140
2017-05-05T06:52:52.545Z,155
2017-05-05T06:54:01.784Z,110
2017-05-05T06:55:10.781Z,125
2017-05-05T06:56:19.671Z,100
2017-05-05T06:57:28.886Z,100
2017-05-05T06:58:38.101Z,115
2017-05-05T06:59:47.320Z,90
2017-05-05T07:00:56.940Z,95
2017-05-05T07:02:05.843Z,100
2017-05-05T07:03:15.054Z,110
2017-05-05T07:04:24.267Z,100
2017-05-05T07:05:33.168Z,70
2017-05-05T07:06:42.681Z,65
2017-05-05T07:07:51.572Z,75
2017-05-05T07:09:00.787Z,70
2017-05-05T07:10:09.701Z,75
2017-05-05T07:11:18.917Z,85
2017-05-05T07:12:27.951Z,110
2017-05-05T07:13:37.852Z,100
2017-05-05T07:14:46.759Z,90
2017-05-05T07:15:55.655Z,95
2017-05-05T07:17:04.876Z,70
2017-05-05T07:18:14.147Z,50
2017-05-05T07:19:23.030Z,45
2017-05-05T07:20:31.919Z,55
2017-05-05T07:21:41.138Z,75
2017-05-05T07:22:50.024Z,85
2017-05-05T07:23:59.303Z,95
2017-05-05T07:25:09.505Z,110
2017-05-05T07:26:18.747Z,105
2017-05-05T07:27:27.967Z,100
2017-05-05T07:28:37.189Z,95
2017-05-05T07:29:46.240Z,90
2017-05-05T07:30:55.150Z,105
2017-05-05T07:32:04.044Z,95
2017-05-05T07:33:12.946Z,100
2017-05-05T07:34:21.834Z,110
2017-05-05T07:35:31.051Z,100
2017-05-05T07:36:40.592Z,100
2017-05-05T07:37:49.811Z,125
2017-05-05T07:38:59.029Z,100
2017-05-05T07:40:07.920Z,80
2017-05-05T07:41:17.258Z,75
2017-05-05T07:42:26.148Z,75
2017-05-05T07:43:35.377Z,90
2017-05-05T07:44:44.917Z,100
2017-05-05T07:45:53.809Z,125
2017-05-05T07:47:02.846Z,120
2017-05-05T07:48:12.068Z,155
2017-05-05T07:49:20.981Z,140
2017-05-05T07:50:29.871Z,130
2017-05-05T07:51:39.086Z,130
2017-05-05T07:52:49.099Z,130
2017-05-05T07:53:58.328Z,105
2017-05-05T07:55:07.869Z,120
2017-05-05T07:56:16.760Z,135
2017-05-05T07:57:25.652Z,130
2017-05-05T07:58:34.974Z,135
2017-05-05T07:59:43.865Z,140
2017-05-05T08:00:52.755Z,130
2017-05-05T08:02:01.657Z,140
2017-05-05T08:03:10.875Z,135
2017-05-05T08:04:20.464Z,130
2017-05-05T08:05:29.358Z,120
2017-05-05T08:06:38.576Z,110
2017-05-05T08:07:47.482Z,110
2017-05-05T08:08:57.027Z,105
2017-05-05T08:10:06.072Z,105
2017-05-05T08:11:14.976Z,100
2017-05-05T08:12:23.863Z,95
2017-05-05T08:13:32.759Z,100
2017-05-05T08:14:41.975Z,125
2017-05-05T08:15:51.018Z,115
2017-05-05T08:17:00.236Z,125
2017-05-05T08:18:09.130Z,140
2017-05-05T08:19:18.030Z,130
2017-05-05T08:20:26.920Z,135
2017-05-05T08:21:36.132Z,140
2017-05-05T08:22:45.670Z,155
2017-05-05T08:23:54.887Z,145
2017-05-05T08:25:04.434Z,145
2017-05-05T08:26:13.657Z,135
2017-05-05T08:27:22.701Z,135
2017-05-05T08:28:32.265Z,140
2017-05-05T08:29:41.498Z,130
2017-05-05T08:30:50.396Z,140
2017-05-05T08:31:59.622Z,135
2017-05-05T08:33:10.227Z,130
2017-05-05T08:34:19.121Z,125
2017-05-05T08:35:28.348Z,150
2017-05-05T08:36:37.560Z,130
2017-05-05T08:37:46.786Z,130
2017-05-05T08:38:56.252Z,150
2017-05-05T08:40:05.147Z,145
2017-05-05T08:41:14.364Z,150
2017-05-05T08:42:23.582Z,170
2017-05-05T08:43:32.479Z,195
2017-05-05T08:44:41.948Z,165
2017-05-05T08:45:50.842Z,150
2017-05-05T08:46:59.731Z,140
2017-05-05T08:48:08.626Z,130
2017-05-05T08:49:18.179Z,155
2017-05-05T08:50:27.701Z,140
2017-05-05T08:51:36.607Z,170
2017-05-05T08:52:45.829Z,170
2017-05-05T08:53:55.038Z,155
2017-05-05T08:55:03.935Z,140
2017-05-05T08:56:13.027Z,165
2017-05-05T08:57:21.919Z,155
2017-05-05T08:58:31.468Z,160
2017-05-05T08:59:40.683Z,165
2017-05-05T09:00:49.577Z,150
2017-05-05T09:01:58.528Z,130
2017-05-05T09:03:07.750Z,120
2017-05-05T09:04:16.972Z,140
2017-05-05T09:05:26.199Z,115
2017-05-05T09:06:35.098Z,110
2017-05-05T09:07:44.210Z,105
2017-05-05T09:08:53.757Z,110
2017-05-05T09:10:03.627Z,105
2017-05-05T09:11:12.529Z,115
2017-05-05T09:12:21.420Z,120
2017-05-05T09:13:30.693Z,90
2017-05-05T09:14:39.913Z,95
2017-05-05T09:15:48.806Z,110
2017-05-05T09:16:57.699Z,115
2017-05-05T09:18:06.590Z,105
2017-05-05T09:19:16.134Z,115
2017-05-05T09:20:25.679Z,110
2017-05-05T09:21:34.899Z,110
2017-05-05T09:22:43.791Z,105
2017-05-05T09:23:52.683Z,130
2017-05-05T09:25:02.399Z,125
2017-05-05T09:26:11.617Z,130
2017-05-05T09:27:21.159Z,125
2017-05-05T09:28:30.053Z,120
2017-05-05T09:29:39.596Z,115
2017-05-05T09:30:49.116Z,130
2017-05-05T09:31:58.014Z,130
2017-05-05T09:33:07.228Z,120
2017-05-05T09:34:16.772Z,135
2017-05-05T09:35:25.989Z,135
2017-05-05T09:36:36.236Z,160
2017-05-05T09:37:45.453Z,155
2017-05-05T09:38:54.344Z,180
2017-05-05T09:40:03.233Z,145
2017-05-05T09:41:12.454Z,130
2017-05-05T09:42:21.834Z,150
2017-05-05T09:43:31.044Z,175
2017-05-05T09:44:40.587Z,170
2017-05-05T09:45:49.800Z,165
2017-05-05T09:46:59.023Z,155
2017-05-05T09:48:08.291Z,145
2017-05-05T09:49:17.515Z,165
2017-05-05T09:50:26.731Z,155
2017-05-05T09:51:35.954Z,150
2017-05-05T09:52:45.496Z,125
2017-05-05T09:53:55.067Z,130
2017-05-05T09:55:04.287Z,140
2017-05-05T09:56:13.178Z,135
2017-05-05T09:57:22.070Z,130
2017-05-05T09:58:30.959Z,125
2017-05-05T09:59:40.234Z,125
2017-05-05T10:00:49.124Z,125
2017-05-05T10:01:58.337Z,130
2017-05-05T10:03:07.551Z,155
2017-05-05T10:04:16.443Z,175
2017-05-05T10:05:25.482Z,165
2017-05-05T10:06:34.380Z,170
2017-05-05T10:07:43.497Z,185
2017-05-05T10:08:52.726Z,175
2017-05-05T10:10:02.274Z,185
2017-05-05T10:11:11.536Z,195
2017-05-05T10:12:20.754Z,200
2017-05-05T10:13:29.644Z,215
2017-05-05T10:14:38.537Z,220
2017-05-05T10:15:47.430Z,215
2017-05-05T10:16:56.373Z,240
2017-05-05T10:18:05.594Z,220
2017-05-05T10:19:14.812Z,225
2017-05-05T10:20:23.703Z,220
2017-05-05T10:21:32.617Z,240
2017-05-05T10:22:41.758Z,245
2017-05-05T10:23:50.984Z,235
2017-05-05T10:24:59.882Z,215
2017-05-05T10:26:09.102Z,210
2017-05-05T10:27:18.646Z,215
2017-05-05T10:28:28.239Z,210
2017-05-05T10:29:37.131Z,225
2017-05-05T10:30:46.026Z,255
2017-05-05T10:31:55.244Z,200
2017-05-05T10:33:04.465Z,185
2017-05-05T10:34:13.933Z,185
2017-05-05T10:35:23.148Z,185
2017-05-05T10:36:32.363Z,170
2017-05-05T10:37:41.254Z,165
2017-05-05T10:38:50.477Z,155
2017-05-05T10:40:00.172Z,150
2017-05-05T10:41:09.069Z,150
2017-05-05T10:42:18.285Z,155
2017-05-05T10:43:27.502Z,155
2017-05-05T10:44:36.396Z,160
2017-05-05T10:45:45.291Z,185
2017-05-05T10:46:54.182Z,195
2017-05-05T10:48:03.397Z,175
2017-05-05T10:49:12.617Z,175
2017-05-05T10:50:21.519Z,180
2017-05-05T10:51:31.107Z,190
2017-05-05T10:52:40.644Z,195
2017-05-05T10:53:49.862Z,175
2017-05-05T10:54:59.077Z,160
2017-05-05T10:56:07.966Z,150
2017-05-05T10:57:16.962Z,165
2017-05-05T10:58:26.187Z,165
2017-05-05T10:59:35.077Z,165
2017-05-05T11:00:44.294Z,145
2017-05-05T11:01:53.192Z,145
2017-05-05T11:03:02.136Z,160
2017-05-05T11:04:11.353Z,145
2017-05-05T11:05:20.241Z,165
2017-05-05T11:06:29.183Z,175
2017-05-05T11:07:38.079Z,155
2017-05-05T11:08:47.136Z,145
2017-05-05T11:09:56.681Z,135
2017-05-05T11:11:05.569Z,130
2017-05-05T11:12:14.462Z,135
2017-05-05T11:13:23.688Z,140
2017-05-05T11:14:32.956Z,155
2017-05-05T11:15:41.846Z,175
2017-05-05T11:16:50.749Z,175
2017-05-05T11:17:59.638Z,180
2017-05-05T11:19:08.855Z,185
2017-05-05T11:20:18.118Z,190
2017-05-05T11:21:27.014Z,185
2017-05-05T11:22:35.912Z,175
2017-05-05T11:23:44.806Z,185
2017-05-05T11:24:54.025Z,180
2017-05-05T11:26:03.666Z,180
2017-05-05T11:27:12.562Z,180
2017-05-05T11:28:21.787Z,180
2017-05-05T11:29:30.697Z,180
2017-05-05T11:30:39.587Z,175
2017-05-05T11:31:48.851Z,180
2017-05-05T11:32:57.751Z,180
2017-05-05T11:34:06.963Z,175
2017-05-05T11:35:16.517Z,170
2017-05-05T11:36:25.411Z,165
2017-05-05T11:37:34.448Z,155
2017-05-05T11:38:43.670Z,140
2017-05-05T11:39:52.569Z,130
2017-05-05T11:41:01.459Z,145
2017-05-05T11:42:10.687Z,145
2017-05-05T11:43:20.331Z,130
2017-05-05T11:44:29.550Z,120
2017-05-05T11:45:38.447Z,115
2017-05-05T11:46:47.360Z,115
2017-05-05T11:47:56.904Z,135
2017-05-05T11:49:06.834Z,155
2017-05-05T11:50:15.728Z,135
2017-05-05T11:51:24.619Z,130
2017-05-05T11:52:33.510Z,140
2017-05-05T11:53:42.412Z,145
2017-05-05T11:54:51.454Z,150
2017-05-05T11:56:00.345Z,160
2017-05-05T11:57:09.259Z,155
2017-05-05T11:58:18.478Z,155
2017-05-05T11:59:27.705Z,150
2017-05-05T12:00:36.724Z,145
2017-05-05T12:01:45.624Z,150
2017-05-05T12:02:54.585Z,145
2017-05-05T12:04:03.863Z,150
2017-05-05T12:05:13.081Z,150
2017-05-05T12:06:22.187Z,155
2017-05-05T12:07:31.083Z,155
2017-05-05T12:08:39.978Z,170
2017-05-05T12:09:49.208Z,180
2017-05-05T12:10:58.436Z,170
2017-05-05T12:12:08.059Z,155
2017-05-05T12:13:16.976Z,160
2017-05-05T12:14:25.891Z,165
2017-05-05T12:15:35.441Z,175
2017-05-05T12:16:44.347Z,180
2017-05-05T12:17:53.401Z,195
2017-05-05T12:19:02.943Z,180
2017-05-05T12:20:11.862Z,200
2017-05-05T12:21:21.081Z,205
2017-05-05T12:22:30.305Z,205
2017-05-05T12:23:39.809Z,205
2017-05-05T12:24:48.714Z,200
2017-05-05T12:25:57.932Z,205
2017-05-05T12:27:07.151Z,220
2017-05-05T12:28:16.074Z,225
2017-05-05T12:29:25.446Z,225
2017-05-05T12:30:34.398Z,225
2017-05-05T12:31:43.297Z,240
2017-05-05T12:32:52.250Z,235
2017-05-05T12:34:01.495Z,225
2017-05-05T12:35:10.801Z,215
2017-05-05T12:36:19.695Z,220
2017-05-05T12:37:28.609Z,200
2017-05-05T12:38:37.831Z,190
2017-05-05T12:39:46.724Z,210
2017-05-05T12:40:55.631Z,205
2017-05-05T12:42:04.873Z,170
2017-05-05T12:43:13.800Z,135
2017-05-05T12:44:23.041Z,135
2017-05-05T12:45:31.951Z,120
2017-05-05T12:46:41.119Z,115
2017-05-05T12:47:50.052Z,110
2017-05-05T12:48:59.300Z,130
2017-05-05T12:50:08.194Z,130
2017-05-05T12:51:17.121Z,125
2017-05-05T12:52:26.775Z,130
2017-05-05T12:53:35.694Z,130
2017-05-05T12:54:44.913Z,125
2017-05-05T12:55:53.806Z,125
2017-05-05T12:57:03.039Z,120
2017-05-05T12:58:12.423Z,125
2017-05-05T12:59:21.337Z,160
2017-05-05T13:00:30.234Z,185
2017-05-05T13:01:39.135Z,195
2017-05-05T13:02:48.360Z,175
2017-05-05T13:03:57.673Z,165
2017-05-05T13:05:06.568Z,165
2017-05-05T13:06:15.814Z,160
2017-05-05T13:07:25.031Z,160
2017-05-05T13:08:34.571Z,160
2017-05-05T13:09:43.613Z,155
2017-05-05T13:10:52.827Z,145
2017-05-05T13:12:01.716Z,135
2017-05-05T13:13:10.605Z,130
2017-05-05T13:14:19.496Z,125
2017-05-05T13:15:29.113Z,120
2017-05-05T13:16:38.330Z,125
2017-05-05T13:17:47.222Z,125
2017-05-05T13:18:56.440Z,135
2017-05-05T13:20:05.331Z,145
2017-05-05T13:21:14.372Z,150
2017-05-05T13:22:23.276Z,150
2017-05-05T13:23:32.503Z,140
2017-05-05T13:24:41.806Z,155
2017-05-05T13:25:51.022Z,175
2017-05-05T13:27:00.715Z,155
2017-05-05T13:28:09.930Z,125
2017-05-05T13:29:18.820Z,115
2017-05-05T13:30:27.713Z,115
2017-05-05T13:31:36.607Z,95
2017-05-05T13:32:45.518Z,90
2017-05-05T13:33:54.744Z,90
2017-05-05T13:35:03.995Z,95
2017-05-05T13:36:12.898Z,105
2017-05-05T13:37:21.792Z,105
2017-05-05T13:38:31.164Z,120
2017-05-05T13:39:40.384Z,130
2017-05-05T13:40:49.965Z,125
2017-05-05T13:41:58.867Z,125
2017-05-05T13:43:07.775Z,110
2017-05-05T13:44:17.015Z,105
2017-05-05T13:45:25.916Z,105
2017-05-05T13:46:35.135Z,105
2017-05-05T13:47:44.355Z,105
2017-05-05T13:48:53.266Z,105
2017-05-05T13:50:02.315Z,110
2017-05-05T13:51:11.543Z,125
2017-05-05T13:52:20.754Z,125
2017-05-05T13:53:30.621Z,135
2017-05-05T13:54:40.170Z,135
2017-05-05T13:55:49.913Z,140
2017-05-05T13:56:58.831Z,145
2017-05-05T13:58:07.737Z,155
2017-05-05T13:59:16.952Z,165
2017-05-05T14:00:25.850Z,155
2017-05-05T14:01:35.080Z,170
2017-05-05T14:02:43.971Z,165
2017-05-05T14:03:52.861Z,175
2017-05-05T14:05:02.417Z,185
2017-05-05T14:06:11.633Z,195
2017-05-05T14:07:21.002Z,200
2017-05-05T14:08:29.897Z,215
2017-05-05T14:09:38.795Z,225
2017-05-05T14:10:48.011Z,220
2017-05-05T14:11:57.234Z,220
2017-05-05T14:13:06.433Z,220
2017-05-05T14:14:15.650Z,220
2017-05-05T14:15:24.871Z,215
2017-05-05T14:16:33.763Z,195
2017-05-05T14:17:42.658Z,185
2017-05-05T14:18:51.706Z,150
2017-05-05T14:20:01.612Z,175
2017-05-05T14:21:10.838Z,180
2017-05-05T14:22:19.731Z,205
2017-05-05T14:23:28.654Z,220
2017-05-05T14:24:37.716Z,215
2017-05-05T14:25:46.945Z,210
2017-05-05T14:26:55.846Z,200
2017-05-05T14:28:04.738Z,180
2017-05-05T14:29:13.638Z,135
2017-05-05T14:30:22.694Z,110
2017-05-05T14:31:31.614Z,100
2017-05-05T14:32:40.505Z,105
2017-05-05T14:33:49.724Z,135
2017-05-05T14:34:58.614Z,130
2017-05-05T14:36:07.807Z,145
2017-05-05T14:37:16.704Z,150
2017-05-05T14:38:25.950Z,160
2017-05-05T14:39:35.177Z,170
2017-05-05T14:40:44.171Z,170
2017-05-05T14:41:53.162Z,190
2017-05-05T14:43:02.398Z,220
2017-05-05T14:44:11.300Z,215
2017-05-05T14:45:20.199Z,220
2017-05-05T14:46:29.091Z,220
2017-05-05T14:47:37.995Z,220
2017-05-05T14:48:46.898Z,210
2017-05-05T14:49:55.812Z,195
2017-05-05T14:51:04.713Z,190
2017-05-05T14:52:13.610Z,185
2017-05-05T14:53:22.836Z,185
2017-05-05T14:54:31.751Z,190
2017-05-05T14:55:40.970Z,195
2017-05-05T14:56:49.870Z,205
2017-05-05T14:57:59.111Z,200
2017-05-05T14:59:08.412Z,205
2017-05-05T15:00:17.644Z,205
2017-05-05T15:01:26.543Z,220
2017-05-05T15:02:35.450Z,250
2017-05-05T15:03:45.007Z,270
2017-05-05T15:04:54.049Z,270
2017-05-05T15:06:02.946Z,255
2017-05-05T15:07:11.875Z,225
2017-05-05T15:08:20.795Z,170
2017-05-05T15:09:29.689Z,170
2017-05-05T15:10:38.783Z,215
2017-05-05T15:11:48.382Z,225
2017-05-05T15:12:57.680Z,215
2017-05-05T15:14:06.579Z,175
2017-05-05T15:15:15.497Z,170
2017-05-05T15:16:25.200Z,175
2017-05-05T15:17:34.091Z,175
2017-05-05T15:18:43.001Z,165
2017-05-05T15:19:51.932Z,150
2017-05-05T15:21:00.915Z,165
2017-05-05T15:22:09.886Z,175
2017-05-05T15:23:19.112Z,200
2017-05-05T15:24:28.350Z,200
2017-05-05T15:25:37.269Z,175
2017-05-05T15:26:46.225Z,145
2017-05-05T15:27:55.743Z,145
2017-05-05T15:29:04.636Z,150
2017-05-05T15:30:13.535Z,150
2017-05-05T15:31:22.450Z,160
2017-05-05T15:32:31.696Z,165
2017-05-05T15:33:41.069Z,170
2017-05-05T15:34:50.287Z,150
2017-05-05T15:35:59.191Z,145
2017-05-05T15:37:08.083Z,140
2017-05-05T15:38:16.972Z,130
2017-05-05T15:39:26.228Z,120
2017-05-05T15:40:35.122Z,105
2017-05-05T15:41:44.338Z,115
2017-05-05T15:42:53.889Z,120
2017-05-05T15:44:02.934Z,115
2017-05-05T15:45:11.889Z,115
2017-05-05T15:46:20.837Z,105
2017-05-05T15:47:30.089Z,105
2017-05-05T15:48:39.456Z,105
2017-05-05T15:49:48.466Z,100
2017-05-05T15:50:57.569Z,100
2017-05-05T15:52:06.708Z,95
2017-05-05T15:53:15.974Z,95
2017-05-05T15:54:24.913Z,95
2017-05-05T15:55:34.201Z,95
2017-05-05T15:56:43.098Z,95
2017-05-05T15:57:52.001Z,95
2017-05-05T15:59:00.955Z,95
2017-05-05T16:00:09.863Z,100
2017-05-05T16:01:18.772Z,90
2017-05-05T16:02:27.668Z,85
2017-05-05T16:03:36.889Z,85
2017-05-05T16:04:46.479Z,80
2017-05-05T16:05:55.433Z,85
2017-05-05T16:07:04.407Z,85
2017-05-05T16:08:13.302Z,85
2017-05-05T16:09:22.521Z,85
2017-05-05T16:10:32.662Z,85
2017-05-05T16:11:41.753Z,85
2017-05-05T16:12:51.027Z,85
2017-05-05T16:13:59.919Z,90
2017-05-05T16:15:09.478Z,95
2017-05-05T16:16:18.720Z,100
2017-05-05T16:17:27.625Z,95